ADDS METAR Data INFO
IDs: Format: Raw Decoded Include TAF

Data at: 0458 UTC 23 May 2017

KPKV 230455Z AUTO 00000KT 10SM CLR 23/22 A2988 RMK AO2 T02250220
KPKV 230435Z AUTO 00000KT 10SM CLR 23/22 A2987 RMK AO2 T02250222
KPKV 230415Z AUTO 00000KT 10SM CLR 23/22 A2987 RMK AO2 T02250223
KPKV 230355Z AUTO 00000KT 10SM CLR 23/22 A2987 RMK AO2 T02280222
KPKV 230335Z AUTO 00000KT 10SM CLR 23/22 A2986 RMK AO2 T02300223
KPKV 230315Z AUTO 00000KT 10SM CLR 23/23 A2985 RMK AO2 T02300225
KPKV 230255Z AUTO 00000KT 10SM CLR 23/23 A2984 RMK AO2 T02310225
KPKV 230235Z AUTO 00000KT 10SM CLR 23/23 A2984 RMK AO2 T02330226
KPKV 230215Z AUTO 00000KT 10SM CLR 24/23 A2984 RMK AO2 T02360230
KPKV 230155Z AUTO 00000KT 10SM CLR 24/23 A2984 RMK AO2 T02410233
KPKV 230135Z AUTO 01005KT 10SM CLR 25/24 A2983 RMK AO2 T02460236
KPKV 230115Z AUTO 01003KT 10SM CLR 25/24 A2983 RMK AO2 T02510243
KPKV 230055Z AUTO 00000KT 10SM CLR 25/25 A2982 RMK AO2 T02540245
KPKV 230035Z AUTO 00000KT 10SM SCT090 26/25 A2983 RMK AO2 T02550245
KPKV 230015Z AUTO 00000KT 10SM SCT070 SCT090 26/25 A2983 RMK AO2 T02570248
KPKV 222355Z AUTO 00000KT 10SM SCT024 SCT035 BKN070 25/25 A2983 RMK AO2 P0001 60001 T02520246 10290 20251
KPKV 222335Z AUTO 00000KT 5SM RA SCT024 BKN039 OVC060 25/25 A2984 RMK AO2 P0001 T02510246
KPKV 222315Z AUTO 00000KT 10SM SCT022 BKN032 OVC047 26/24 A2984 RMK AO2 T02580240
KPKV 222255Z AUTO 00000KT 10SM SCT026 BKN034 BKN046 28/24 A2984 RMK AO2 T02820237
KPKV 222235Z AUTO 00000KT 10SM SCT110 29/24 A2984 RMK AO2 T02850238
KPKV 222215Z AUTO 00000KT 10SM SCT120 28/24 A2984 RMK AO2 T02800238
KPKV 222155Z AUTO 00000KT 10SM CLR 29/24 A2985 RMK AO2 T02870240
KPKV 222135Z AUTO 00000KT 10SM SCT025 SCT040 SCT047 29/24 A2985 RMK AO2 T02850238
KPKV 222115Z AUTO 00000KT 10SM SCT038 OVC046 28/24 A2986 RMK AO2 T02780239
KPKV 222055Z AUTO 00000KT 10SM SCT026 SCT031 BKN044 28/24 A2986 RMK AO2 T02800238
KPKV 222035Z AUTO 00000KT 10SM SCT024 29/24 A2986 RMK AO2 T02870241
KPKV 222015Z AUTO 00000KT 10SM SCT027 SCT037 SCT050 28/24 A2987 RMK AO2 T02820240
KPKV 221955Z AUTO 00000KT 10SM SCT027 SCT042 SCT050 29/24 A2988 RMK AO2 T02880241
KPKV 221935Z AUTO 00000KT 10SM SCT025 SCT050 29/24 A2989 RMK AO2 T02850236
KPKV 221915Z AUTO 00000KT 10SM SCT090 28/24 A2989 RMK AO2 T02840238
KPKV 221855Z AUTO 00000KT 10SM BKN080 28/24 A2990 RMK AO2 T02790238
KPKV 221835Z AUTO 14008KT 10SM SCT075 BKN090 28/24 A2991 RMK AO2 T02800237
KPKV 221815Z AUTO 16003G14KT 10SM SCT021 SCT034 OVC075 27/24 A2992 RMK AO2 T02720240
KPKV 221755Z AUTO 16006KT 10SM SCT021 BKN034 OVC075 28/24 A2993 RMK AO2 60001 T02750242 10280 20212
KPKV 221735Z AUTO 16009KT 10SM SCT023 BKN031 28/24 A2993 RMK AO2 T02760240
KPKV 221715Z AUTO 15008KT 10SM SCT021 BKN029 BKN095 28/24 A2993 RMK AO2 T02770242
KPKV 221655Z AUTO 00000KT 10SM BKN019 BKN032 BKN095 27/24 A2994 RMK AO2 T02710240
KPKV 221635Z AUTO 14011G14KT 10SM BKN017 BKN023 BKN095 27/24 A2994 RMK AO2 T02700240
KPKV 221615Z AUTO 14003KT 10SM SCT015 BKN095 27/24 A2994 RMK AO2 T02670239
KPKV 221555Z AUTO 00000KT 10SM BKN013 BKN095 27/24 A2994 RMK AO2 T02650242
KPKV 221535Z AUTO 13011G14KT 10SM SCT013 SCT065 BKN070 26/25 A2994 RMK AO2 T02630246
KPKV 221515Z AUTO 12011G16KT 10SM SCT011 SCT065 BKN095 25/24 A2994 RMK AO2 T02510242
KPKV 221455Z AUTO 12011G15KT 10SM SCT010 SCT014 OVC095 25/24 A2995 RMK AO2 60001 T02480239
KPKV 221435Z AUTO 11013KT 10SM SCT010 SCT017 BKN085 25/24 A2995 RMK AO2 T02470239
KPKV 221415Z AUTO 10010G16KT 10SM BKN070 BKN100 24/23 A2995 RMK AO2 T02390234
KPKV 221355Z AUTO 00000KT 10SM OVC070 23/23 A2994 RMK AO2 T02330230
KPKV 221335Z AUTO 00000KT 10SM OVC070 23/22 A2994 RMK AO2 T02250222
KPKV 221315Z AUTO 00000KT 10SM OVC080 22/22 A2994 RMK AO2 T02210221
KPKV 221255Z AUTO 00000KT 10SM BKN080 OVC100 22/22 A2994 RMK AO2 P0001 T02200220
KPKV 221235Z AUTO 07012G16KT 10SM SCT023 SCT060 BKN100 22/22 A2994 RMK AO2 T02200220
KPKV 221215Z AUTO 00000KT 10SM RA SCT019 BKN055 OVC100 22/22 A2996 RMK AO2 T02150215
KPKV 221155Z AUTO 00000KT 5SM RA SCT008 BKN015 OVC041 21/21 A2996 RMK AO2 P0054 60255 7//// T02130213 10243 20210
KPKV 221135Z AUTO 31014G18KT 3SM +RA OVC008 22/22 A2996 RMK AO2 P0028 T02150215
KPKV 221115Z AUTO 00000KT 3SM RA BKN008 OVC012 22/22 A2994 RMK AO2 P0007 T02180218
KPKV 221055Z AUTO 00000KT 3SM +RA BKN006 OVC012 22/22 A2994 RMK AO2 P0100 T02150215
KPKV 221035Z AUTO 00000KT 1 3/4SM +RA OVC006 21/21 A2996 RMK AO2 P0086 T02100210
KPKV 221015Z AUTO 00000KT 3/4SM +RA OVC004 22/22 A2995 RMK AO2 P0064 T02220222
KPKV 220955Z AUTO 00000KT 3SM +RA BKN006 BKN009 OVC014 23/23 A2993 RMK AO2 P0097 T02280228
KPKV 220940Z AUTO 00000KT 1 3/4SM +RA BKN006 OVC012 23/23 A2991 RMK AO2 P0085 T02250225
KPKV 220915Z AUTO 10005KT 4SM RA OVC008 24/24 A2992 RMK AO2 P0009 T02350235
KPKV 220855Z AUTO 00000KT 7SM -DZ BKN008 OVC014 23/23 A2991 RMK AO2 60001 T02330233
KPKV 220835Z AUTO 00000KT 7SM -RA SCT006 OVC014 23/23 A2991 RMK AO2 T02330233
KPKV 220815Z AUTO 00000KT 7SM DZ SCT008 OVC013 24/24 A2993 RMK AO2 T02360236
KPKV 220755Z AUTO 00000KT 10SM SCT008 BKN015 OVC049 24/24 A2995 RMK AO2 T02370237
KPKV 220735Z AUTO 00000KT 10SM SCT008 BKN012 OVC049 24/24 A2995 RMK AO2 T02390238
KPKV 220715Z AUTO 00000KT 10SM OVC008 24/24 A2997 RMK AO2 T02390237
KPKV 220655Z AUTO 00000KT 10SM OVC008 24/24 A2998 RMK AO2 P0001 T02400240
KPKV 220635Z AUTO 04011G14KT 10SM -RA OVC011 24/24 A2996 RMK AO2 P0001 T02400237
KPKV 220615Z AUTO 04009KT 10SM -RA OVC009 24/24 A2997 RMK AO2 T02400239
KPKV 220555Z AUTO 00000KT 7SM -RA BKN011 OVC024 24/24 A2998 RMK AO2 T02430241 10270 20240
KPKV 220535Z AUTO 04009G14KT 7SM -RA SCT011 BKN031 OVC070 24/24 A2997 RMK AO2 T02420237
KPKV 220515Z AUTO 03008G14KT 10SM SCT009 BKN016 OVC046 25/24 A2998 RMK AO2 T02450236
KPKV 220455Z AUTO 03004KT 10SM SCT016 BKN023 OVC047 24/24 A2998 RMK AO2 T02430235
KPKV 220435Z AUTO 00000KT 10SM SCT011 BKN018 OVC041 24/24 A3000 RMK AO2 T02430235
KPKV 220415Z AUTO 00000KT 10SM SCT020 SCT030 BKN050 24/23 A2998 RMK AO2 T02400232
KPKV 220355Z AUTO 00000KT 10SM SCT018 SCT026 SCT050 24/23 A2999 RMK AO2 T02420232
KPKV 220335Z AUTO 03009KT 10SM BKN016 BKN022 BKN028 24/23 A2997 RMK AO2 T02410227
KPKV 220315Z AUTO 00000KT 10SM SCT014 BKN020 BKN028 24/23 A3002 RMK AO2 T02430227
KPKV 220255Z AUTO 36004KT 10SM SCT014 SCT025 BKN039 25/23 A3000 RMK AO2 T02450230
KPKV 220235Z AUTO 00000KT 10SM BKN014 BKN019 BKN024 25/23 A3000 RMK AO2 T02500233
KPKV 220215Z AUTO 00000KT 10SM BKN014 BKN022 25/24 A2999 RMK AO2 T02520235
KPKV 220155Z AUTO 00000KT 10SM BKN016 BKN020 25/24 A2995 RMK AO2 T02510235
KPKV 220135Z AUTO 00000KT 10SM BKN014 25/24 A2994 RMK AO2 T02510236
KPKV 220115Z AUTO 06005G15KT 10SM CLR 26/24 A2993 RMK AO2 T02590239
KPKV 220055Z AUTO 05013G21KT 10SM CLR 26/24 A2990 RMK AO2 T02570238
KPKV 220035Z AUTO 00000KT 10SM SCT019 SCT023 BKN100 26/24 A2995 RMK AO2 T02630241
KPKV 220015Z AUTO 00000KT 10SM SCT019 BKN029 OVC095 27/24 A2999 RMK AO2 T02670241
KPKV 212355Z AUTO 00000KT 10SM SCT029 BKN045 27/24 A2997 RMK AO2 T02700242 10290 20260
KPKV 212335Z AUTO 00000KT 10SM SCT023 SCT029 SCT034 27/24 A2996 RMK AO2 T02700240
KPKV 212315Z AUTO 00000KT 10SM BKN022 BKN030 OVC034 27/24 A2996 RMK AO2 T02710238
KPKV 212255Z AUTO 00000KT 10SM BKN024 BKN029 28/24 A2994 RMK AO2 T02770242
KPKV 212235Z AUTO 00000KT 10SM CLR 28/24 A2994 RMK AO2 T02780243
KPKV 212215Z AUTO 00000KT 10SM CLR 28/24 A2995 RMK AO2 T02810243
KPKV 212155Z AUTO 00000KT 10SM SCT090 29/24 A2994 RMK AO2 T02870244
KPKV 212140Z AUTO 00000KT 10SM CLR 29/25 A2994 RMK AO2 T02890247
KPKV 212115Z AUTO 00000KT 10SM SCT120 28/24 A2994 RMK AO2 T02750242
KPKV 212055Z AUTO 00000KT 10SM SCT120 27/24 A2994 RMK AO2 T02700240
KPKV 212035Z AUTO 00000KT 10SM CLR 27/24 A2995 RMK AO2 T02680241
KPKV 212015Z AUTO 00000KT 10SM CLR 27/25 A2994 RMK AO2 T02660245
KPKV 211955Z AUTO 00000KT 10SM CLR 27/25 A2995 RMK AO2 T02650247
KPKV 211935Z AUTO 14004KT 10SM SCT008 SCT095 SCT120 26/25 A2995 RMK AO2 T02600248
KPKV 211915Z AUTO 14010KT 7SM SCT008 BKN110 26/25 A2997 RMK AO2 T02600250
KPKV 211855Z AUTO 13011G17KT 10SM SCT010 OVC110 26/25 A2998 RMK AO2 T02620250
KPKV 211835Z AUTO 11011KT 10SM SCT010 SCT048 BKN095 27/25 A2998 RMK AO2 T02650250
KPKV 211815Z AUTO 12015G22KT 10SM SCT048 SCT085 SCT110 27/25 A2998 RMK AO2 T02710253
KPKV 211755Z AUTO 12017G20KT 10SM SCT015 SCT025 BKN110 29/25 A2997 RMK AO2 6//// T02850253
KPKV 211735Z AUTO 12016G21KT 10SM SCT065 31/26 A2998 RMK AO2 T03060261
KPKV 211715Z AUTO 14016G19KT 10SM SCT032 SCT040 BKN065 30/26 A2999 RMK AO2 T03030259


Page loaded:  04:58 UTC  |   09:58 PM Pacific  |   10:58 PM Mountain  |   11:58 PM Central  |   12:58 AM Eastern

 

ADVISORIES

FORECASTS

FORECASTS

OBSERVATIONS

USER TOOLS

ABOUT US